Time;durP1;ratioP1;P1;durP2;ratioP2;P2;SDS_P1;SDS_P2;PMS_P1;PMS_P2;Temp;Humidity;BMP_temperature;BMP_pressure;BME280_temperature;BME280_humidity;BME280_pressure;Samples;Min_cycle;Max_cycle;Signal;HPM_P1;HPM_P2
2023/03/16 00:01:42;;;;;;;0.87;0.87;;;;;;;0.51;98.73;100751.66;5002551;28;20885;-50
2023/03/16 00:04:09;;;;;;;1.27;0.70;;;;;;;0.43;98.69;100745.44;4992520;28;20523;-50
2023/03/16 00:06:36;;;;;;;0.70;0.70;;;;;;;0.53;99.14;100747.34;5003201;28;20459;-49
2023/03/16 00:09:02;;;;;;;0.50;0.50;;;;;;;0.50;98.70;100739.44;4998182;28;20448;-50
2023/03/16 00:11:29;;;;;;;0.30;0.30;;;;;;;0.42;98.21;100740.19;4995976;28;20482;-50
2023/03/16 00:13:57;;;;;;;0.77;0.77;;;;;;;0.47;99.08;100754.22;5001058;28;20511;-50
2023/03/16 00:16:24;;;;;;;0.80;0.60;;;;;;;0.42;98.92;100754.13;5003890;28;20510;-50
2023/03/16 00:18:50;;;;;;;2.23;1.97;;;;;;;0.34;98.66;100747.84;5001719;28;20448;-50
2023/03/16 00:21:16;;;;;;;0.20;0.20;;;;;;;0.37;97.87;100755.75;4999250;28;20535;-50
2023/03/16 00:23:43;;;;;;;0.50;0.50;;;;;;;0.22;98.58;100753.72;5004106;28;20453;-50
2023/03/16 00:26:11;;;;;;;1.23;1.23;;;;;;;0.56;97.93;100752.66;5005992;28;20456;-50
2023/03/16 00:28:38;;;;;;;0.63;0.53;;;;;;;0.32;98.94;100746.06;5001902;28;20460;-50
2023/03/16 00:31:07;;;;;;;0.30;0.30;;;;;;;0.27;99.76;100754.72;4999349;28;20527;-50
2023/03/16 00:33:36;;;;;;;0.60;0.60;;;;;;;0.21;100.00;100751.06;5009034;28;20511;-50
2023/03/16 00:36:06;;;;;;;1.47;1.37;;;;;;;0.29;98.86;100753.00;4999384;28;20453;-50
2023/03/16 00:38:35;;;;;;;1.23;1.23;;;;;;;0.06;99.18;100753.38;5001534;28;20455;-50
2023/03/16 00:41:04;;;;;;;0.97;0.97;;;;;;;-0.15;99.94;100757.25;5005498;28;20481;-49
2023/03/16 00:43:39;;;;;;;0.60;0.60;;;;;;;-0.08;99.85;100742.63;5004428;28;20445;-50
2023/03/16 00:46:11;;;;;;;0.30;0.30;;;;;;;-0.04;100.00;100742.72;4998259;28;20871;-50
2023/03/16 00:48:41;;;;;;;2.17;2.07;;;;;;;0.02;99.67;100747.19;4999061;28;20631;-49
2023/03/16 00:51:11;;;;;;;1.43;1.43;;;;;;;0.09;100.00;100749.06;5010885;28;20464;-50
2023/03/16 00:53:40;;;;;;;0.47;0.47;;;;;;;-0.08;99.06;100750.47;5005550;28;20488;-49
2023/03/16 00:56:07;;;;;;;5.73;0.80;;;;;;;-0.12;100.00;100757.34;5000589;28;20795;-50
2023/03/16 00:58:36;;;;;;;0.70;0.60;;;;;;;-0.19;100.00;100763.28;4998959;28;20464;-49
2023/03/16 01:01:05;;;;;;;3.90;0.50;;;;;;;-0.39;100.00;100746.28;5003187;28;20470;-49
2023/03/16 01:03:33;;;;;;;2.10;1.50;;;;;;;-0.25;100.00;100757.94;5005249;28;20448;-49
2023/03/16 01:06:11;;;;;;;0.70;0.70;;;;;;;-0.36;100.00;100765.50;5001992;28;20871;-49
2023/03/16 01:08:38;;;;;;;3.47;1.10;;;;;;;-0.29;100.00;100761.28;5005253;28;20449;-50
2023/03/16 01:11:09;;;;;;;0.30;0.30;;;;;;;-0.13;99.95;100765.16;5004156;28;20504;-49
2023/03/16 01:13:36;;;;;;;0.67;0.33;;;;;;;-0.13;99.06;100766.03;4998559;28;20493;-50
2023/03/16 01:16:03;;;;;;;3.07;2.97;;;;;;;-0.23;99.37;100755.34;4999230;28;20457;-50
2023/03/16 01:18:33;;;;;;;1.13;1.10;;;;;;;-0.19;99.88;100754.56;5005113;28;20955;-49
2023/03/16 01:21:05;;;;;;;0.97;0.97;;;;;;;-0.20;99.89;100751.06;5004959;28;20479;-50
2023/03/16 01:23:32;;;;;;;3.00;0.90;;;;;;;-0.18;100.00;100746.75;4999905;28;20445;-49
2023/03/16 01:25:59;;;;;;;0.83;0.77;;;;;;;-0.25;99.74;100738.75;4998509;28;20541;-50
2023/03/16 01:28:27;;;;;;;1.30;1.30;;;;;;;-0.34;99.06;100732.47;5003548;28;20477;-49
2023/03/16 01:30:58;;;;;;;0.40;0.30;;;;;;;-0.17;99.77;100724.13;5005031;28;20477;-49
2023/03/16 01:33:26;;;;;;;0.30;0.20;;;;;;;-0.24;100.00;100719.63;4995535;28;20489;-50
2023/03/16 01:35:53;;;;;;;1.87;1.80;;;;;;;-0.52;99.64;100737.28;5005254;28;20456;-49
2023/03/16 01:38:20;;;;;;;0.37;0.37;;;;;;;0.07;100.00;100737.72;5001272;28;20453;-49
2023/03/16 01:40:51;;;;;;;1.13;1.13;;;;;;;-0.04;98.38;100734.88;4998257;28;20850;-50
2023/03/16 01:43:19;;;;;;;1.13;1.10;;;;;;;-0.12;99.72;100736.47;5001720;28;20504;-49
2023/03/16 01:46:20;;;;;;;0.57;0.40;;;;;;;-0.24;99.51;100723.13;4995187;28;20453;-49
2023/03/16 01:48:55;;;;;;;1.70;1.60;;;;;;;-0.26;99.85;100713.50;4998059;28;20951;-50
2023/03/16 01:51:34;;;;;;;0.57;0.53;;;;;;;-0.38;100.00;100709.75;4999234;28;20480;-49
2023/03/16 01:54:13;;;;;;;0.80;0.73;;;;;;;-0.34;99.65;100716.81;4993402;28;20495;-49
2023/03/16 01:56:47;;;;;;;0.30;0.30;;;;;;;-0.45;99.37;100722.63;4998632;28;20515;-49
2023/03/16 01:59:16;;;;;;;0.80;0.53;;;;;;;-0.64;100.00;100710.91;4998426;28;20569;-49
2023/03/16 02:01:44;;;;;;;15.33;0.80;;;;;;;-0.72;100.00;100715.03;4997847;28;20473;-49
2023/03/16 02:04:43;;;;;;;4.60;0.97;;;;;;;-0.55;100.00;100703.25;5007407;28;20480;-49
2023/03/16 02:07:11;;;;;;;1.00;0.90;;;;;;;-0.73;100.00;100701.13;4997631;28;20452;-49
2023/03/16 02:09:41;;;;;;;0.30;0.30;;;;;;;-0.69;100.00;100699.44;4998310;28;20458;-49
2023/03/16 02:12:16;;;;;;;1.23;1.23;;;;;;;-0.56;100.00;100683.22;5004606;28;20461;-49
2023/03/16 02:14:44;;;;;;;1.23;0.77;;;;;;;-0.51;100.00;100685.97;5004419;28;20975;-49
2023/03/16 02:17:14;;;;;;;0.70;0.70;;;;;;;-0.37;100.00;100681.91;4999243;28;20453;-50
2023/03/16 02:19:59;;;;;;;3.13;0.57;;;;;;;-0.30;100.00;100687.28;4997087;28;20468;-49
2023/03/16 02:22:26;;;;;;;0.73;0.60;;;;;;;-0.30;100.00;100687.28;5000063;28;20565;-49
2023/03/16 02:24:54;;;;;;;0.93;0.93;;;;;;;-0.24;100.00;100683.06;5004321;28;20450;-50
2023/03/16 02:27:40;;;;;;;0.70;0.70;;;;;;;-0.22;100.00;100681.38;5001942;28;20455;-50
2023/03/16 02:30:11;;;;;;;0.50;0.50;;;;;;;-0.13;99.86;100678.97;4985191;28;20472;-50
2023/03/16 02:32:39;;;;;;;0.50;0.50;;;;;;;-0.17;100.00;100682.31;4997498;28;20493;-49
2023/03/16 02:35:07;;;;;;;1.17;1.13;;;;;;;-0.02;100.00;100683.53;5000178;28;20941;-50
2023/03/16 02:37:34;;;;;;;0.30;0.30;;;;;;;-0.04;100.00;100686.97;4997325;28;20453;-49
2023/03/16 02:40:04;;;;;;;1.63;1.53;;;;;;;-0.17;99.56;100674.50;5001303;28;20474;-50
2023/03/16 02:42:31;;;;;;;0.60;0.60;;;;;;;-0.28;100.00;100661.19;5002869;28;20486;-50
2023/03/16 02:44:59;;;;;;;0.30;0.30;;;;;;;-0.27;100.00;100664.69;4991338;28;20449;-49
2023/03/16 02:47:36;;;;;;;0.40;0.40;;;;;;;-0.20;100.00;100662.25;5003833;28;20454;-49
2023/03/16 02:50:05;;;;;;;0.27;0.23;;;;;;;-0.25;100.00;100669.13;5002667;28;20471;-50
2023/03/16 02:52:36;;;;;;;0.30;0.20;;;;;;;-0.29;100.00;100654.22;4984372;28;20461;-50
2023/03/16 02:55:05;;;;;;;1.13;1.13;;;;;;;-0.36;100.00;100650.63;5003500;28;20813;-49
2023/03/16 02:57:32;;;;;;;0.40;0.40;;;;;;;-0.39;100.00;100650.56;4984792;28;20452;-50
2023/03/16 02:59:58;;;;;;;0.60;0.60;;;;;;;-0.27;100.00;100641.19;4996879;28;20990;-49
2023/03/16 03:02:24;;;;;;;0.60;0.40;;;;;;;-0.35;100.00;100648.88;5003342;28;20452;-49
2023/03/16 03:04:53;;;;;;;1.70;1.37;;;;;;;-0.23;100.00;100648.25;4993734;28;20464;-49
2023/03/16 03:07:20;;;;;;;0.60;0.60;;;;;;;-0.20;100.00;100657.03;5002727;28;20456;-49
2023/03/16 03:09:46;;;;;;;0.50;0.47;;;;;;;-0.22;100.00;100652.63;5003729;28;20452;-49
2023/03/16 03:12:13;;;;;;;1.87;0.77;;;;;;;-0.11;100.00;100653.75;4998209;28;20463;-49
2023/03/16 03:14:39;;;;;;;0.27;0.20;;;;;;;-0.07;99.58;100647.72;4996820;28;20508;-49
2023/03/16 03:17:08;;;;;;;0.93;0.93;;;;;;;-0.24;100.00;100646.50;5001857;28;20457;-49
2023/03/16 03:19:35;;;;;;;0.40;0.40;;;;;;;-0.36;100.00;100648.00;5003942;28;20813;-50
2023/03/16 03:22:05;;;;;;;1.53;1.33;;;;;;;-0.50;100.00;100649.44;4990201;28;20469;-49
2023/03/16 03:24:33;;;;;;;1.43;0.90;;;;;;;-0.48;100.00;100649.47;5003433;28;20502;-49
2023/03/16 03:27:00;;;;;;;0.70;0.70;;;;;;;-0.39;100.00;100650.56;4999882;28;20448;-49
2023/03/16 03:29:33;;;;;;;1.00;0.87;;;;;;;-0.54;100.00;100650.22;4996458;28;20455;-49
2023/03/16 03:32:00;;;;;;;0.87;0.60;;;;;;;-0.57;100.00;100641.44;4999435;28;20477;-49
2023/03/16 03:34:28;;;;;;;0.40;0.40;;;;;;;-0.57;100.00;100644.91;4997769;28;20489;-49
2023/03/16 03:36:54;;;;;;;1.23;1.17;;;;;;;-0.69;100.00;100642.91;5002204;28;20479;-49
2023/03/16 03:39:21;;;;;;;0.20;0.20;;;;;;;-0.57;100.00;100644.91;5008717;28;20453;-49
2023/03/16 03:41:47;;;;;;;5.03;2.67;;;;;;;-0.64;100.00;100651.75;5005580;28;20479;-49
2023/03/16 03:44:14;;;;;;;0.30;0.30;;;;;;;-0.67;100.00;100651.69;4996202;28;20442;-50
2023/03/16 03:46:40;;;;;;;0.40;0.30;;;;;;;-0.69;100.00;100653.34;5005335;28;20535;-49
2023/03/16 03:49:07;;;;;;;0.60;0.60;;;;;;;-0.55;100.00;100645.81;5002264;28;20868;-51
2023/03/16 03:51:33;;;;;;;6.00;1.60;;;;;;;-0.64;100.00;100637.81;5003362;28;20555;-50
2023/03/16 03:54:00;;;;;;;1.47;1.37;;;;;;;-0.70;100.00;100638.53;5010511;28;20493;-49
2023/03/16 03:56:26;;;;;;;1.13;1.03;;;;;;;-0.72;100.00;100634.13;5005106;28;20509;-49
2023/03/16 03:58:53;;;;;;;0.50;0.50;;;;;;;-0.67;100.00;100637.75;5000070;28;20475;-49
2023/03/16 04:01:19;;;;;;;2.73;1.30;;;;;;;-0.58;100.00;100637.94;5002223;28;20474;-49
2023/03/16 04:03:46;;;;;;;0.50;0.50;;;;;;;-0.69;100.00;100635.09;5007793;28;20476;-49
2023/03/16 04:06:13;;;;;;;0.43;0.43;;;;;;;-0.85;100.00;100629.50;5001796;28;21000;-49
2023/03/16 04:08:39;;;;;;;1.10;1.07;;;;;;;-0.77;100.00;100631.44;5006664;28;20449;-49
2023/03/16 04:11:05;;;;;;;0.50;0.50;;;;;;;-0.70;100.00;100637.66;5004644;28;20469;-49
2023/03/16 04:13:32;;;;;;;1.10;1.10;;;;;;;-0.67;100.00;100640.38;4999612;28;20488;-49
2023/03/16 04:16:03;;;;;;;0.40;0.37;;;;;;;-0.65;100.00;100638.66;5001110;28;20457;-49
2023/03/16 04:18:37;;;;;;;1.60;0.40;;;;;;;-0.54;99.55;100633.69;5006281;28;20453;-49
2023/03/16 04:21:05;;;;;;;0.53;0.50;;;;;;;-0.40;98.97;100630.53;5005857;28;20977;-50
2023/03/16 04:23:32;;;;;;;1.43;1.43;;;;;;;-0.53;99.72;100630.22;5000221;28;20502;-49
2023/03/16 04:25:59;;;;;;;0.87;0.87;;;;;;;-0.56;99.90;100632.75;4999453;28;20476;-50
2023/03/16 04:28:26;;;;;;;0.57;0.57;;;;;;;-0.54;100.00;100626.72;5005009;28;20450;-49
2023/03/16 04:30:53;;;;;;;2.43;1.83;;;;;;;-0.65;99.99;100636.06;5005623;28;20476;-49
2023/03/16 04:33:20;;;;;;;0.57;0.43;;;;;;;-0.60;100.00;100630.06;4996656;28;20547;-49
2023/03/16 04:35:47;;;;;;;0.83;0.40;;;;;;;-0.70;100.00;100624.59;5006147;28;20460;-49
2023/03/16 04:38:14;;;;;;;1.03;1.03;;;;;;;-0.55;100.00;100629.28;5000998;28;20459;-50
2023/03/16 04:40:40;;;;;;;1.00;0.97;;;;;;;-0.65;100.00;100625.63;4999986;28;20474;-49
2023/03/16 04:43:07;;;;;;;2.97;0.63;;;;;;;-0.61;100.00;100622.22;5004464;28;20895;-49
2023/03/16 04:45:33;;;;;;;0.40;0.40;;;;;;;-0.63;100.00;100629.13;5005874;28;20448;-49
2023/03/16 04:48:00;;;;;;;1.90;0.93;;;;;;;-0.64;100.00;100627.38;5001027;28;20452;-50
2023/03/16 04:50:26;;;;;;;1.23;1.17;;;;;;;-0.60;100.00;100626.59;4997664;28;20480;-49
2023/03/16 04:52:53;;;;;;;4.03;0.87;;;;;;;-0.60;100.00;100624.84;5005115;28;20495;-49
2023/03/16 04:55:21;;;;;;;3.90;1.17;;;;;;;-0.61;100.00;100620.47;4998949;28;20450;-49
2023/03/16 04:57:48;;;;;;;0.40;0.37;;;;;;;-0.64;100.00;100627.38;5003644;28;20457;-48
2023/03/16 05:00:18;;;;;;;0.33;0.33;;;;;;;-0.53;100.00;100628.50;5005642;28;20476;-48
2023/03/16 05:02:49;;;;;;;0.67;0.50;;;;;;;-0.69;100.00;100629.84;5000256;28;20452;-48
2023/03/16 05:05:15;;;;;;;2.00;1.53;;;;;;;-0.76;100.00;100627.97;5004137;28;20450;-48
2023/03/16 05:07:43;;;;;;;0.70;0.70;;;;;;;-0.67;100.00;100635.16;5002540;28;20448;-49
2023/03/16 05:10:11;;;;;;;2.60;0.40;;;;;;;-0.65;100.00;100628.22;4998514;28;20504;-48
2023/03/16 05:12:38;;;;;;;0.87;0.87;;;;;;;-0.66;100.00;100626.47;5001114;28;20510;-48
2023/03/16 05:15:05;;;;;;;2.53;2.33;;;;;;;-0.62;100.00;100617.84;5005382;28;20493;-48
2023/03/16 05:17:32;;;;;;;1.13;0.73;;;;;;;-0.64;100.00;100616.94;5003003;28;20455;-49
2023/03/16 05:19:59;;;;;;;0.50;0.50;;;;;;;-0.59;100.00;100612.69;4998459;28;20473;-49
2023/03/16 05:22:25;;;;;;;0.33;0.33;;;;;;;-0.55;100.00;100616.22;5000619;28;20496;-50
2023/03/16 05:24:52;;;;;;;0.40;0.40;;;;;;;-0.48;100.00;100610.31;5005010;28;20477;-48
2023/03/16 05:27:19;;;;;;;0.93;0.93;;;;;;;-0.02;100.00;100612.09;5002898;28;20939;-48
2023/03/16 05:29:45;;;;;;;0.30;0.20;;;;;;;-0.33;99.81;100610.63;4998365;28;20509;-48
2023/03/16 05:32:12;;;;;;;0.40;0.20;;;;;;;-0.51;100.00;100605.91;5000409;28;20445;-48
2023/03/16 05:34:42;;;;;;;2.67;1.93;;;;;;;-0.43;100.00;100606.94;4999726;28;20489;-48
2023/03/16 05:37:08;;;;;;;1.00;1.00;;;;;;;-0.53;100.00;100602.38;4999809;28;20469;-48
2023/03/16 05:39:35;;;;;;;1.40;1.30;;;;;;;-0.39;100.00;100594.84;5004644;28;20476;-49
2023/03/16 05:42:02;;;;;;;1.80;1.10;;;;;;;-0.42;100.00;100602.59;5003845;28;20975;-48
2023/03/16 05:44:29;;;;;;;1.03;1.03;;;;;;;-0.51;100.00;100599.81;4992430;28;20445;-47
2023/03/16 05:46:55;;;;;;;0.40;0.40;;;;;;;-0.57;100.00;100597.94;5004594;28;20449;-48
2023/03/16 05:49:22;;;;;;;0.47;0.43;;;;;;;-0.40;100.00;100596.56;4998125;28;20459;-48
2023/03/16 05:51:49;;;;;;;0.60;0.60;;;;;;;-0.33;100.00;100598.44;4991226;28;20576;-48
2023/03/16 05:54:15;;;;;;;1.20;1.03;;;;;;;-0.35;100.00;100578.38;5004383;28;20863;-48
2023/03/16 05:56:42;;;;;;;1.03;0.50;;;;;;;-0.37;100.00;100591.41;5004997;28;20839;-48
2023/03/16 05:59:08;;;;;;;4.63;2.33;;;;;;;-0.39;100.00;100598.34;4985566;28;20463;-51
2023/03/16 06:01:36;;;;;;;2.40;1.30;;;;;;;0.01;100.00;100598.25;4997664;28;20511;-48
2023/03/16 06:04:04;;;;;;;2.93;1.90;;;;;;;0.07;100.00;100595.72;5008095;28;20819;-48
2023/03/16 06:06:30;;;;;;;0.20;0.20;;;;;;;0.15;100.00;100596.75;4997695;28;20546;-48
2023/03/16 06:08:57;;;;;;;0.57;0.57;;;;;;;0.10;100.00;100594.03;5003623;28;20460;-48
2023/03/16 06:11:23;;;;;;;3.97;2.30;;;;;;;0.14;100.00;100600.22;5004136;28;20472;-48
2023/03/16 06:13:50;;;;;;;1.13;1.13;;;;;;;0.39;100.00;100594.56;4998170;28;20492;-48
2023/03/16 06:16:16;;;;;;;0.60;0.60;;;;;;;0.36;100.00;100594.50;4997609;28;20453;-49
2023/03/16 06:18:43;;;;;;;2.43;1.93;;;;;;;0.38;100.00;100599.75;5002955;28;20939;-48
2023/03/16 06:21:09;;;;;;;0.87;0.87;;;;;;;0.26;100.00;100598.69;5004077;28;20475;-49
2023/03/16 06:23:35;;;;;;;0.30;0.30;;;;;;;0.32;100.00;100597.94;4999596;28;20447;-48
2023/03/16 06:26:02;;;;;;;0.70;0.30;;;;;;;0.38;100.00;100599.75;4997653;28;20461;-49
2023/03/16 06:28:29;;;;;;;0.30;0.20;;;;;;;0.45;100.00;100604.25;5002932;28;20453;-48
2023/03/16 06:30:56;;;;;;;1.23;1.13;;;;;;;0.54;100.00;100601.78;4992462;28;20476;-48
2023/03/16 06:33:23;;;;;;;2.50;0.33;;;;;;;0.60;100.00;100596.66;5006776;28;20449;-48
2023/03/16 06:35:50;;;;;;;1.20;1.10;;;;;;;0.69;100.00;100602.06;4996984;28;20457;-48
2023/03/16 06:38:18;;;;;;;4.10;1.43;;;;;;;0.74;100.00;100607.34;5002095;28;20454;-48
2023/03/16 06:40:45;;;;;;;0.43;0.30;;;;;;;0.92;100.00;100612.00;5003872;28;21115;-48
2023/03/16 06:43:11;;;;;;;1.13;1.07;;;;;;;0.97;100.00;100608.63;5000128;28;20455;-48
2023/03/16 06:45:37;;;;;;;1.07;0.70;;;;;;;0.92;100.00;100610.25;4996952;28;20503;-48
2023/03/16 06:48:05;;;;;;;0.73;0.63;;;;;;;0.94;100.00;100603.31;5001674;28;20974;-49
2023/03/16 06:50:32;;;;;;;0.93;0.93;;;;;;;0.95;100.00;100599.81;5013966;28;20530;-50
2023/03/16 06:52:58;;;;;;;0.40;0.30;;;;;;;1.08;100.00;100599.16;5001298;28;20489;-49
2023/03/16 06:55:25;;;;;;;0.90;0.90;;;;;;;1.12;100.00;100605.34;5022452;28;20540;-48
2023/03/16 06:57:51;;;;;;;0.90;0.70;;;;;;;1.13;100.00;100600.13;5017862;28;20480;-49
2023/03/16 07:00:18;;;;;;;0.50;0.50;;;;;;;1.15;100.00;100595.78;5014319;28;20476;-49
2023/03/16 07:02:44;;;;;;;0.60;0.60;;;;;;;1.23;100.00;100600.22;5019136;28;20480;-51
2023/03/16 07:05:14;;;;;;;1.17;1.17;;;;;;;1.32;100.00;100598.63;5012055;28;20457;-50
2023/03/16 07:07:44;;;;;;;3.77;1.80;;;;;;;1.36;100.00;100599.53;5008833;28;20511;-49
2023/03/16 07:10:12;;;;;;;0.33;0.30;;;;;;;1.43;100.00;100599.66;5022534;28;20545;-49
2023/03/16 07:12:38;;;;;;;3.00;1.30;;;;;;;1.42;100.00;100602.25;5019365;28;20448;-50
2023/03/16 07:15:05;;;;;;;3.50;2.47;;;;;;;1.56;100.00;100605.06;5013392;28;20492;-49
2023/03/16 07:17:32;;;;;;;2.53;1.27;;;;;;;1.65;100.00;100606.06;5018019;28;20517;-50
2023/03/16 07:19:58;;;;;;;2.53;1.90;;;;;;;1.74;100.00;100600.91;5021165;28;20541;-49
2023/03/16 07:22:25;;;;;;;3.50;1.40;;;;;;;1.89;100.00;100597.59;5022050;28;20465;-49
2023/03/16 07:24:56;;;;;;;3.50;1.27;;;;;;;1.92;100.00;100599.38;5016639;28;20506;-49
2023/03/16 07:27:25;;;;;;;1.53;0.73;;;;;;;2.05;100.00;100596.91;5017667;28;20446;-49
2023/03/16 07:29:51;;;;;;;0.70;0.37;;;;;;;2.08;100.00;100601.31;5023312;28;20434;-51
2023/03/16 07:32:18;;;;;;;3.50;0.77;;;;;;;2.11;100.00;100598.72;5024310;28;20456;-50
2023/03/16 07:34:45;;;;;;;1.13;0.90;;;;;;;2.20;100.00;100587.47;5022223;28;20488;-52
2023/03/16 07:37:11;;;;;;;1.80;1.70;;;;;;;2.31;100.00;100591.91;5020348;28;20542;-49
2023/03/16 07:39:38;;;;;;;3.37;1.57;;;;;;;2.64;99.95;100600.97;5024215;28;20453;-49
2023/03/16 07:42:04;;;;;;;1.87;1.40;;;;;;;2.55;99.94;100599.16;5023976;28;20540;-50
2023/03/16 07:44:31;;;;;;;1.27;1.17;;;;;;;2.66;100.00;100608.00;5011343;28;20826;-50
2023/03/16 07:46:57;;;;;;;1.17;0.93;;;;;;;2.57;100.00;100604.41;5025538;28;20453;-50
2023/03/16 07:49:24;;;;;;;3.87;1.50;;;;;;;2.80;100.00;100610.75;5018699;28;20460;-50
2023/03/16 07:51:50;;;;;;;6.90;1.50;;;;;;;2.90;100.00;100614.31;5010481;28;20504;-49
2023/03/16 07:54:16;;;;;;;3.73;3.53;;;;;;;3.01;100.00;100607.38;5024605;28;20485;-50
2023/03/16 07:56:43;;;;;;;1.43;1.00;;;;;;;3.12;100.00;100599.56;5023964;28;20961;-50
2023/03/16 07:59:15;;;;;;;3.53;2.17;;;;;;;3.43;100.00;100598.91;5006656;28;20453;-50
2023/03/16 08:01:41;;;;;;;1.87;1.67;;;;;;;3.59;100.00;100605.13;5017681;28;20534;-50
2023/03/16 08:04:11;;;;;;;5.07;2.70;;;;;;;3.36;100.00;100607.63;5028999;28;20516;-50
2023/03/16 08:06:37;;;;;;;3.57;3.37;;;;;;;3.52;100.00;100612.06;5019289;28;20449;-50
2023/03/16 08:09:04;;;;;;;4.40;3.60;;;;;;;3.55;100.00;100603.31;5032350;28;20443;-50
2023/03/16 08:11:31;;;;;;;3.27;1.97;;;;;;;3.61;100.00;100611.25;5017053;28;20546;-50
2023/03/16 08:13:57;;;;;;;3.10;3.00;;;;;;;3.56;100.00;100607.72;5023391;28;20521;-51
2023/03/16 08:16:25;;;;;;;1.50;1.37;;;;;;;3.41;100.00;100600.63;5025571;28;20449;-50
2023/03/16 08:18:55;;;;;;;4.93;2.37;;;;;;;3.39;100.00;100597.13;5019408;28;20449;-49
2023/03/16 08:21:22;;;;;;;1.20;1.10;;;;;;;3.79;100.00;100587.66;5017157;28;20486;-50
2023/03/16 08:23:49;;;;;;;1.30;1.23;;;;;;;3.94;100.00;100585.97;5021590;28;20485;-50
2023/03/16 08:26:16;;;;;;;3.90;3.60;;;;;;;3.87;100.00;100569.31;5021437;28;20525;-50
2023/03/16 08:28:44;;;;;;;4.43;1.90;;;;;;;3.90;100.00;100576.31;5010237;28;20445;-50
2023/03/16 08:31:13;;;;;;;3.50;2.77;;;;;;;3.95;100.00;100578.06;5015403;28;20496;-50
2023/03/16 08:33:44;;;;;;;9.43;1.80;;;;;;;4.04;100.00;100586.00;5015956;28;20433;-50
2023/03/16 08:36:12;;;;;;;3.07;2.23;;;;;;;4.34;100.00;100589.56;5024802;28;20442;-50
2023/03/16 08:38:39;;;;;;;2.50;2.30;;;;;;;4.27;100.00;100590.44;5026272;28;20441;-52
2023/03/16 08:41:06;;;;;;;2.97;2.07;;;;;;;4.38;99.70;100589.56;5021352;28;20465;-50
2023/03/16 08:43:33;;;;;;;6.40;2.47;;;;;;;4.73;98.33;100592.22;5022824;28;20476;-52
2023/03/16 08:46:00;;;;;;;2.60;1.97;;;;;;;4.62;97.85;100591.34;5020913;28;20437;-51
2023/03/16 08:48:28;;;;;;;2.20;2.10;;;;;;;4.71;97.61;100588.72;5024576;28;20454;-52
2023/03/16 08:50:55;;;;;;;1.60;1.50;;;;;;;4.97;98.30;100582.56;5029038;28;20481;-51
2023/03/16 08:53:21;;;;;;;1.90;1.47;;;;;;;5.13;97.26;100576.38;5008549;28;20461;-50
2023/03/16 08:55:47;;;;;;;3.30;2.83;;;;;;;5.29;95.95;100578.09;5027170;28;20485;-50
2023/03/16 08:58:14;;;;;;;3.43;3.13;;;;;;;5.31;95.37;100564.91;5026417;28;20475;-50
2023/03/16 09:00:41;;;;;;;3.47;2.67;;;;;;;5.55;95.07;100569.25;5021863;28;20474;-51
2023/03/16 09:03:10;;;;;;;1.90;1.70;;;;;;;5.37;93.31;100564.03;5025874;28;20440;-54
2023/03/16 09:05:37;;;;;;;3.50;3.30;;;;;;;5.71;93.05;100549.81;5022843;28;20504;-50
2023/03/16 09:08:05;;;;;;;3.90;3.60;;;;;;;5.42;94.34;100547.31;5022021;28;20473;-52
2023/03/16 09:10:32;;;;;;;4.03;2.70;;;;;;;5.75;94.31;100543.66;5026427;28;20477;-52
2023/03/16 09:12:58;;;;;;;2.27;2.07;;;;;;;5.80;93.93;100548.91;5026062;28;20519;-52
2023/03/16 09:15:25;;;;;;;3.70;3.40;;;;;;;5.42;93.90;100547.31;5023546;28;20481;-50
2023/03/16 09:17:53;;;;;;;2.50;2.30;;;;;;;5.54;94.88;100549.03;5021286;28;20517;-50
2023/03/16 09:20:19;;;;;;;18.13;2.20;;;;;;;5.63;94.66;100555.16;5026898;28;20521;-50
2023/03/16 09:23:00;;;;;;;3.37;3.10;;;;;;;5.91;93.92;100553.28;5024434;28;20450;-50
2023/03/16 09:25:26;;;;;;;5.07;2.50;;;;;;;6.16;92.48;100548.72;5014053;28;20453;-51
2023/03/16 09:27:54;;;;;;;1.80;1.70;;;;;;;6.06;92.13;100560.25;5017726;28;20448;-52
2023/03/16 09:30:21;;;;;;;3.83;3.50;;;;;;;6.22;91.37;100553.97;5022499;28;20480;-50
2023/03/16 09:32:47;;;;;;;5.10;4.63;;;;;;;6.26;91.95;100554.81;5030506;28;20474;-53
2023/03/16 09:35:14;;;;;;;6.13;3.27;;;;;;;6.25;91.34;100550.44;5012264;28;20469;-51
2023/03/16 09:37:41;;;;;;;3.50;2.20;;;;;;;6.21;91.30;100541.66;5004854;28;20477;-51
2023/03/16 09:40:25;;;;;;;2.77;2.57;;;;;;;6.57;91.31;100552.81;5025130;28;20496;-50
2023/03/16 09:43:13;;;;;;;6.57;4.17;;;;;;;6.18;92.03;100541.69;5018481;28;20816;-51
2023/03/16 09:46:05;;;;;;;2.30;2.20;;;;;;;6.34;91.12;100542.47;5021201;28;20479;-51
2023/03/16 09:48:34;;;;;;;3.87;3.43;;;;;;;6.48;90.89;100523.88;5022450;28;20450;-51
2023/03/16 09:51:04;;;;;;;3.13;2.93;;;;;;;6.54;91.21;100527.31;5026150;28;20458;-50
2023/03/16 09:53:34;;;;;;;2.53;2.40;;;;;;;6.67;91.07;100532.50;5009110;28;20452;-53
2023/03/16 09:56:12;;;;;;;2.90;2.47;;;;;;;6.48;90.28;100539.72;5028196;28;20490;-51
2023/03/16 09:58:39;;;;;;;3.20;2.93;;;;;;;6.67;91.05;100538.66;5026810;28;20440;-53
2023/03/16 10:01:27;;;;;;;2.23;1.77;;;;;;;6.35;92.59;100533.66;5023908;28;20473;-51
2023/03/16 10:04:06;;;;;;;2.10;2.00;;;;;;;6.41;91.42;100545.91;5018532;28;20446;-51
2023/03/16 10:06:42;;;;;;;2.53;2.33;;;;;;;6.78;92.36;100530.66;5025409;28;20437;-56
2023/03/16 10:09:27;;;;;;;2.50;2.40;;;;;;;6.73;93.56;100530.69;5025150;28;20465;-52
2023/03/16 10:11:56;;;;;;;3.53;3.23;;;;;;;6.73;91.33;100517.50;5021190;28;20511;-50
2023/03/16 10:14:36;;;;;;;3.03;2.43;;;;;;;7.08;91.06;100524.19;5021237;28;20497;-50
2023/03/16 10:17:26;;;;;;;5.47;3.60;;;;;;;7.13;90.34;100523.25;5023068;28;20449;-51
2023/03/16 10:19:58;;;;;;;4.00;3.60;;;;;;;7.22;89.33;100527.53;5021062;28;20449;-51
2023/03/16 10:22:29;;;;;;;2.70;2.50;;;;;;;7.41;88.28;100537.03;5018482;28;20462;-50
2023/03/16 10:25:17;;;;;;;3.63;2.33;;;;;;;7.97;87.17;100531.91;5017960;28;20441;-49
2023/03/16 10:27:45;;;;;;;1.67;1.57;;;;;;;7.76;86.70;100529.53;5004486;28;20824;-49
2023/03/16 10:30:27;;;;;;;5.03;3.00;;;;;;;7.67;85.85;100525.22;5009398;28;20471;-51
2023/03/16 10:32:59;;;;;;;2.57;2.43;;;;;;;7.49;86.99;100526.34;5014388;28;20449;-48
2023/03/16 10:35:50;;;;;;;4.17;3.77;;;;;;;8.03;85.95;100516.81;5004068;28;20937;-49
2023/03/16 10:38:29;;;;;;;3.43;3.03;;;;;;;8.05;85.18;100513.25;5002846;28;20465;-49
2023/03/16 10:40:58;;;;;;;4.57;3.10;;;;;;;7.85;86.60;100509.13;5004381;28;20505;-48
2023/03/16 10:43:26;;;;;;;3.97;2.90;;;;;;;7.82;86.86;100514.47;5002037;28;20458;-49
2023/03/16 10:46:00;;;;;;;2.70;1.60;;;;;;;7.96;85.90;100501.91;4997933;28;20455;-48
2023/03/16 10:48:32;;;;;;;4.07;3.47;;;;;;;8.09;87.07;100512.34;4999601;28;20479;-49
2023/03/16 10:51:05;;;;;;;3.53;3.23;;;;;;;8.44;85.45;100502.06;5004567;28;20470;-50
2023/03/16 10:53:37;;;;;;;2.60;2.33;;;;;;;8.40;84.96;100508.34;4997897;28;20934;-49
2023/03/16 10:56:12;;;;;;;2.30;2.10;;;;;;;8.30;85.41;100499.63;4999042;28;20492;-50
2023/03/16 10:58:42;;;;;;;3.27;2.60;;;;;;;8.55;83.96;100494.84;5000103;28;20452;-49
2023/03/16 11:01:27;;;;;;;2.03;1.93;;;;;;;8.38;85.74;100490.72;5003360;28;20476;-49
2023/03/16 11:03:56;;;;;;;1.90;1.80;;;;;;;8.19;86.11;100490.09;5006589;28;20448;-49
2023/03/16 11:06:30;;;;;;;2.60;2.40;;;;;;;8.10;87.21;100491.13;4998785;28;20449;-49
2023/03/16 11:09:18;;;;;;;1.77;1.67;;;;;;;8.42;86.91;100498.59;4998977;28;20484;-49
2023/03/16 11:11:48;;;;;;;2.00;1.90;;;;;;;8.33;85.83;100496.91;4997679;28;20496;-49
2023/03/16 11:14:24;;;;;;;3.23;3.00;;;;;;;8.22;87.05;100490.03;5000691;28;20850;-48
2023/03/16 11:17:03;;;;;;;2.70;2.43;;;;;;;8.35;87.27;100485.44;5004495;28;20463;-49
2023/03/16 11:19:33;;;;;;;3.00;2.80;;;;;;;8.25;87.01;100485.59;5004641;28;20452;-49
2023/03/16 11:22:02;;;;;;;2.83;2.33;;;;;;;8.22;86.82;100490.94;4999653;28;20954;-49
2023/03/16 11:24:40;;;;;;;2.50;2.40;;;;;;;8.50;86.95;100491.41;4997736;28;20468;-49
2023/03/16 11:27:17;;;;;;;1.30;1.20;;;;;;;8.68;85.20;100478.72;5001061;28;20865;-49
2023/03/16 11:30:15;;;;;;;3.57;1.70;;;;;;;8.57;84.80;100479.78;5004361;28;20445;-49
2023/03/16 11:32:52;;;;;;;4.93;2.80;;;;;;;8.80;83.50;100468.78;5010411;28;20500;-49
2023/03/16 11:35:22;;;;;;;3.10;3.00;;;;;;;9.28;81.93;100465.19;4993047;28;20495;-49